createdAt,value
2022-08-17T00:01:27.699Z,20.50
2022-08-17T00:04:10.686Z,20.00
2022-08-17T00:06:50.952Z,20.00
2022-08-17T00:09:29.105Z,20.50
2022-08-17T00:12:42.997Z,20.50
2022-08-17T00:15:10.571Z,20.50
2022-08-17T00:17:52.038Z,20.00
2022-08-17T00:20:34.733Z,20.00
2022-08-17T00:23:17.094Z,20.00
2022-08-17T00:25:55.597Z,20.00
2022-08-17T00:28:33.252Z,20.50
2022-08-17T00:31:12.456Z,20.50
2022-08-17T00:33:51.534Z,20.00
2022-08-17T00:36:29.974Z,20.00
2022-08-17T00:39:08.081Z,20.00
2022-08-17T00:41:46.258Z,20.00
2022-08-17T00:44:24.388Z,19.50
2022-08-17T00:47:08.738Z,19.50
2022-08-17T00:49:46.879Z,19.00
2022-08-17T00:52:35.576Z,19.50
2022-08-17T00:55:14.808Z,20.00
2022-08-17T00:57:58.800Z,19.00
2022-08-17T01:00:43.846Z,19.50
2022-08-17T01:03:26.772Z,19.50
2022-08-17T01:06:08.186Z,19.50
2022-08-17T01:08:47.028Z,20.00
2022-08-17T01:11:25.806Z,20.00
2022-08-17T01:14:03.990Z,20.00
2022-08-17T01:16:42.144Z,19.50
2022-08-17T01:19:30.649Z,19.50
2022-08-17T01:22:25.347Z,19.50
2022-08-17T01:25:08.999Z,19.50
2022-08-17T01:27:48.538Z,19.50
2022-08-17T01:30:26.883Z,19.50
2022-08-17T01:33:25.045Z,19.50
2022-08-17T01:36:05.131Z,19.50
2022-08-17T01:38:43.532Z,19.50
2022-08-17T01:41:23.099Z,19.00
2022-08-17T01:44:08.291Z,19.50
2022-08-17T01:46:46.468Z,19.50
2022-08-17T01:49:24.724Z,19.50
2022-08-17T01:52:13.461Z,19.50
2022-08-17T01:54:53.342Z,19.50
2022-08-17T01:57:31.533Z,19.50
2022-08-17T02:00:10.979Z,19.00
2022-08-17T02:02:49.232Z,19.50
2022-08-17T02:05:27.665Z,19.50
2022-08-17T02:08:07.523Z,19.00
2022-08-17T02:10:46.823Z,19.00
2022-08-17T02:13:28.228Z,19.00
2022-08-17T02:16:06.941Z,19.00
2022-08-17T02:18:46.642Z,19.00
2022-08-17T02:21:24.861Z,19.00
2022-08-17T02:24:05.017Z,19.00
2022-08-17T02:26:43.396Z,19.00
2022-08-17T02:29:21.564Z,19.00
2022-08-17T02:32:00.318Z,18.50
2022-08-17T02:34:38.428Z,19.00
2022-08-17T02:37:18.476Z,19.00
2022-08-17T02:39:58.692Z,19.00
2022-08-17T02:42:41.509Z,19.00
2022-08-17T02:45:23.990Z,19.00
2022-08-17T02:48:03.579Z,19.00
2022-08-17T02:50:41.674Z,18.50
2022-08-17T02:53:19.857Z,19.00
2022-08-17T02:55:59.232Z,19.00
2022-08-17T02:58:37.369Z,18.50
2022-08-17T03:01:15.681Z,19.00
2022-08-17T03:03:54.167Z,19.00
2022-08-17T03:06:32.304Z,19.50
2022-08-17T03:09:10.412Z,19.50
2022-08-17T03:11:50.988Z,19.50
2022-08-17T03:14:41.111Z,19.00
2022-08-17T03:17:19.725Z,19.50
2022-08-17T03:19:59.039Z,19.50
2022-08-17T03:22:41.168Z,19.00
2022-08-17T03:25:24.301Z,18.50
2022-08-17T03:28:03.261Z,19.00
2022-08-17T03:30:41.937Z,19.00
2022-08-17T03:33:20.984Z,19.50
2022-08-17T03:36:00.109Z,19.00
2022-08-17T03:38:38.981Z,19.00
2022-08-17T03:41:17.906Z,19.50
2022-08-17T03:43:56.119Z,19.00
2022-08-17T03:47:00.139Z,19.00
2022-08-17T03:49:56.716Z,19.00
2022-08-17T03:52:58.105Z,19.00
2022-08-17T03:55:56.465Z,19.00
2022-08-17T03:58:36.967Z,18.50
2022-08-17T04:01:16.255Z,18.50
2022-08-17T04:03:54.370Z,18.50
2022-08-17T04:06:32.788Z,18.00
2022-08-17T04:09:11.382Z,18.00
2022-08-17T04:11:49.672Z,18.00
2022-08-17T04:14:28.003Z,18.00
2022-08-17T04:17:06.504Z,18.50
2022-08-17T04:19:44.612Z,18.50
2022-08-17T04:22:31.024Z,19.00
2022-08-17T04:25:19.331Z,19.00
2022-08-17T04:27:58.384Z,19.00
2022-08-17T04:30:38.761Z,19.00
2022-08-17T04:33:30.096Z,19.00
2022-08-17T04:36:09.946Z,18.50
2022-08-17T04:38:48.154Z,19.00
2022-08-17T04:41:44.875Z,18.50
2022-08-17T04:44:36.797Z,18.00
2022-08-17T04:47:15.967Z,18.00
2022-08-17T04:49:54.104Z,18.50
2022-08-17T04:52:53.877Z,18.50
2022-08-17T04:55:30.355Z,18.50
2022-08-17T04:58:09.273Z,18.00
2022-08-17T05:00:47.985Z,18.00
2022-08-17T05:03:26.159Z,18.00
2022-08-17T05:06:04.583Z,18.00
2022-08-17T05:08:42.855Z,18.50
2022-08-17T05:11:22.380Z,18.50
2022-08-17T05:14:00.622Z,18.50
2022-08-17T05:16:38.726Z,18.00
2022-08-17T05:19:16.803Z,18.00
2022-08-17T05:21:54.896Z,18.00
2022-08-17T05:24:38.987Z,17.50
2022-08-17T05:27:20.707Z,18.00
2022-08-17T05:29:58.897Z,18.00
2022-08-17T05:32:40.327Z,18.50
2022-08-17T05:35:18.676Z,18.00
2022-08-17T05:37:57.099Z,18.00
2022-08-17T05:40:37.141Z,18.00
2022-08-17T05:43:22.255Z,18.00
2022-08-17T05:46:29.361Z,18.00
2022-08-17T05:49:09.740Z,18.00
2022-08-17T05:52:20.707Z,18.50
2022-08-17T05:55:13.862Z,18.50
2022-08-17T05:58:14.566Z,18.00
2022-08-17T06:01:05.690Z,17.50
2022-08-17T06:04:11.345Z,18.00
2022-08-17T06:07:07.656Z,18.00
2022-08-17T06:10:05.987Z,18.50
2022-08-17T06:13:17.184Z,18.50
2022-08-17T06:16:33.116Z,18.50
2022-08-17T06:19:20.347Z,19.00
2022-08-17T06:22:00.433Z,19.00
2022-08-17T06:25:04.335Z,19.00
2022-08-17T06:28:06.130Z,19.00
2022-08-17T06:31:01.389Z,18.50
2022-08-17T06:33:41.019Z,18.50
2022-08-17T06:36:55.871Z,18.50
2022-08-17T06:39:41.066Z,18.50
2022-08-17T06:43:05.903Z,18.50
2022-08-17T06:45:49.840Z,19.00
2022-08-17T06:49:22.317Z,19.00
2022-08-17T06:52:45.503Z,19.00
2022-08-17T06:55:37.941Z,19.00
2022-08-17T06:58:23.740Z,19.50
2022-08-17T07:01:26.997Z,19.50
2022-08-17T07:04:21.997Z,19.50
2022-08-17T07:07:28.655Z,19.50
2022-08-17T07:10:11.013Z,20.00
2022-08-17T07:12:52.720Z,20.00
2022-08-17T07:15:42.848Z,20.50
2022-08-17T07:18:29.019Z,20.50
2022-08-17T07:21:38.720Z,20.50
2022-08-17T07:24:32.024Z,20.50
2022-08-17T07:27:24.551Z,20.50
2022-08-17T07:30:21.251Z,20.50
2022-08-17T07:33:13.668Z,20.50
2022-08-17T07:35:54.816Z,20.50
2022-08-17T07:38:35.676Z,21.00
2022-08-17T07:41:14.071Z,21.00
2022-08-17T07:43:53.061Z,21.00
2022-08-17T07:47:05.382Z,21.50
2022-08-17T07:49:49.115Z,21.50
2022-08-17T07:52:51.256Z,21.50
2022-08-17T07:55:35.128Z,21.50
2022-08-17T07:58:20.860Z,22.00
2022-08-17T08:01:11.431Z,22.00
2022-08-17T08:03:52.774Z,21.50
2022-08-17T08:06:31.083Z,22.00
2022-08-17T08:09:10.316Z,22.50
2022-08-17T08:11:48.554Z,22.50
2022-08-17T08:14:34.200Z,22.50
2022-08-17T08:17:12.501Z,22.50
2022-08-17T08:19:50.676Z,22.50
2022-08-17T08:23:25.794Z,23.00
2022-08-17T08:26:18.983Z,22.50
2022-08-17T08:29:42.397Z,23.00
2022-08-17T08:33:10.005Z,22.50
2022-08-17T08:36:10.990Z,23.00
2022-08-17T08:39:23.396Z,23.00
2022-08-17T08:42:28.732Z,23.50
2022-08-17T08:45:22.065Z,23.50
2022-08-17T08:48:58.218Z,23.00
2022-08-17T08:51:35.505Z,23.00
2022-08-17T08:54:58.092Z,23.00
2022-08-17T08:57:54.199Z,23.50
2022-08-17T09:00:40.779Z,23.50
2022-08-17T09:03:51.206Z,24.00
2022-08-17T09:06:40.114Z,24.00
2022-08-17T09:09:57.330Z,24.00
2022-08-17T09:13:09.273Z,23.50
2022-08-17T09:15:59.081Z,24.00
2022-08-17T09:19:03.147Z,24.50
2022-08-17T09:21:48.623Z,24.50
2022-08-17T09:24:40.296Z,24.00
2022-08-17T09:27:25.843Z,24.50
2022-08-17T09:30:11.251Z,24.50
2022-08-17T09:33:01.808Z,23.50
2022-08-17T09:35:47.093Z,24.00
2022-08-17T09:38:55.209Z,24.00
2022-08-17T09:41:51.180Z,25.00
2022-08-17T09:45:04.136Z,25.00
2022-08-17T09:48:11.069Z,25.00
2022-08-17T09:51:34.569Z,24.50
2022-08-17T09:54:40.211Z,25.00
2022-08-17T09:57:53.401Z,25.00
2022-08-17T10:00:40.404Z,24.50
2022-08-17T10:03:49.069Z,25.00
2022-08-17T10:06:38.002Z,25.00
2022-08-17T10:09:36.948Z,25.00
2022-08-17T10:12:30.093Z,25.50
2022-08-17T10:15:30.161Z,25.50
2022-08-17T10:18:16.970Z,25.50
2022-08-17T10:21:31.167Z,25.50
2022-08-17T10:25:21.477Z,25.50
2022-08-17T10:27:56.812Z,25.50
2022-08-17T10:31:16.545Z,26.50
2022-08-17T10:34:34.163Z,26.50
2022-08-17T10:38:04.901Z,26.50
2022-08-17T10:41:24.207Z,26.00
2022-08-17T10:44:39.095Z,26.00
2022-08-17T10:47:20.145Z,26.50
2022-08-17T10:50:50.529Z,26.00
2022-08-17T10:53:40.803Z,26.50
2022-08-17T10:56:25.038Z,26.50
2022-08-17T10:59:03.264Z,26.50
2022-08-17T11:01:44.092Z,26.50
2022-08-17T11:04:51.616Z,26.50
2022-08-17T11:07:53.543Z,27.00
2022-08-17T11:10:31.597Z,26.50
2022-08-17T11:13:28.203Z,26.50
2022-08-17T11:16:48.862Z,26.50
2022-08-17T11:19:51.464Z,26.00
2022-08-17T11:23:13.232Z,26.00
2022-08-17T11:25:56.562Z,26.00
2022-08-17T11:28:52.454Z,26.00
2022-08-17T11:31:44.789Z,26.00
2022-08-17T11:34:28.975Z,26.00
2022-08-17T11:37:36.466Z,26.50
2022-08-17T11:40:17.411Z,26.50
2022-08-17T11:43:27.516Z,27.00
2022-08-17T11:46:18.728Z,26.50
2022-08-17T11:49:33.254Z,26.50
2022-08-17T11:52:36.634Z,26.50
2022-08-17T11:55:38.451Z,27.00
2022-08-17T11:58:42.404Z,27.50
2022-08-17T12:01:23.270Z,27.00
2022-08-17T12:04:32.303Z,27.00
2022-08-17T12:07:23.326Z,27.00
2022-08-17T12:10:01.836Z,26.50
2022-08-17T12:12:44.272Z,27.00
2022-08-17T12:15:39.682Z,27.00
2022-08-17T12:18:32.497Z,27.00
2022-08-17T12:21:29.051Z,27.00
2022-08-17T12:24:31.352Z,27.00
2022-08-17T12:27:13.230Z,26.50
2022-08-17T12:29:52.619Z,27.00
2022-08-17T12:32:36.840Z,27.00
2022-08-17T12:35:36.893Z,26.50
2022-08-17T12:41:44.399Z,26.50
2022-08-17T12:44:33.608Z,27.00
2022-08-17T12:47:22.365Z,27.00
2022-08-17T12:50:29.381Z,27.00
2022-08-17T12:53:22.864Z,27.00
2022-08-17T12:56:07.039Z,27.00
2022-08-17T12:58:56.613Z,27.00
2022-08-17T13:01:38.933Z,26.50
2022-08-17T13:04:18.460Z,27.00
2022-08-17T13:07:00.051Z,27.00
2022-08-17T13:09:40.414Z,27.00
2022-08-17T13:12:28.759Z,26.50
2022-08-17T13:15:07.892Z,27.00
2022-08-17T13:18:06.142Z,27.00
2022-08-17T13:20:54.256Z,26.50
2022-08-17T13:23:33.496Z,26.50
2022-08-17T13:26:16.841Z,27.00
2022-08-17T13:28:55.279Z,26.50
2022-08-17T13:31:52.442Z,26.50
2022-08-17T13:35:11.998Z,27.00
2022-08-17T13:38:07.278Z,27.00
2022-08-17T13:40:51.020Z,26.50
2022-08-17T13:43:48.613Z,26.50
2022-08-17T13:46:33.206Z,26.50
2022-08-17T13:49:14.073Z,26.50
2022-08-17T13:51:52.381Z,26.00
2022-08-17T13:54:39.472Z,26.50
2022-08-17T13:57:25.881Z,26.50
2022-08-17T14:00:31.839Z,26.50
2022-08-17T14:03:09.924Z,26.50
2022-08-17T14:05:50.821Z,26.50
2022-08-17T14:08:31.018Z,26.50
2022-08-17T14:11:09.732Z,26.50
2022-08-17T14:13:47.993Z,26.00
2022-08-17T14:16:26.161Z,26.00
2022-08-17T14:19:04.300Z,26.00
2022-08-17T14:21:45.885Z,26.00
2022-08-17T14:24:29.836Z,26.00
2022-08-17T14:27:09.262Z,26.00
2022-08-17T14:29:48.393Z,25.50
2022-08-17T14:32:34.142Z,25.50
2022-08-17T14:35:15.749Z,25.50
2022-08-17T14:37:54.202Z,25.00
2022-08-17T14:40:33.596Z,25.50
2022-08-17T14:43:12.347Z,25.50
2022-08-17T14:45:50.498Z,25.50
2022-08-17T14:48:29.116Z,25.50
2022-08-17T14:51:07.977Z,25.50
2022-08-17T14:53:46.062Z,25.00
2022-08-17T14:56:25.571Z,25.50
2022-08-17T14:59:03.718Z,25.50
2022-08-17T15:01:41.973Z,25.50
2022-08-17T15:04:20.182Z,25.50
2022-08-17T15:06:58.422Z,25.50
2022-08-17T15:09:36.787Z,25.50
2022-08-17T15:12:23.876Z,25.50
2022-08-17T15:15:12.773Z,25.50
2022-08-17T15:17:51.768Z,25.00
2022-08-17T15:20:30.749Z,25.00
2022-08-17T15:23:13.398Z,25.50
2022-08-17T15:25:54.411Z,25.50
2022-08-17T15:28:33.204Z,25.00
2022-08-17T15:31:11.365Z,25.00
2022-08-17T15:33:49.746Z,25.00
2022-08-17T15:36:28.228Z,25.00
2022-08-17T15:39:06.336Z,25.00
2022-08-17T15:41:44.974Z,25.50
2022-08-17T15:44:23.218Z,25.50
2022-08-17T15:47:11.095Z,25.50
2022-08-17T15:49:51.001Z,25.50
2022-08-17T15:52:33.033Z,25.50
2022-08-17T15:55:15.300Z,25.00
2022-08-17T15:57:53.682Z,25.00
2022-08-17T16:00:35.451Z,25.00
2022-08-17T16:03:58.058Z,25.00
2022-08-17T16:06:29.808Z,25.50
2022-08-17T16:09:07.981Z,25.50
2022-08-17T16:11:46.233Z,25.50
2022-08-17T16:14:34.907Z,25.50
2022-08-17T16:17:40.231Z,25.50
2022-08-17T16:20:20.161Z,26.00
2022-08-17T16:22:59.105Z,26.00
2022-08-17T16:25:48.454Z,26.00
2022-08-17T16:28:36.479Z,26.00
2022-08-17T16:31:15.274Z,26.00
2022-08-17T16:34:15.917Z,26.00
2022-08-17T16:36:56.054Z,26.00
2022-08-17T16:39:34.567Z,26.00
2022-08-17T16:42:48.495Z,26.00
2022-08-17T16:45:36.798Z,26.00
2022-08-17T16:48:16.020Z,26.00
2022-08-17T16:51:03.060Z,26.00
2022-08-17T16:53:44.432Z,26.00
2022-08-17T16:56:25.543Z,26.00
2022-08-17T16:59:31.213Z,26.00
2022-08-17T17:02:12.440Z,26.00
2022-08-17T17:05:33.500Z,26.50
2022-08-17T17:08:30.453Z,26.50
2022-08-17T17:11:23.187Z,26.00
2022-08-17T17:14:24.015Z,26.00
2022-08-17T17:17:20.139Z,26.00
2022-08-17T17:20:19.312Z,26.00
2022-08-17T17:23:57.984Z,26.00
2022-08-17T17:27:15.197Z,26.00
2022-08-17T17:30:43.099Z,26.00
2022-08-17T17:33:40.555Z,26.00
2022-08-17T17:36:47.130Z,26.00
2022-08-17T17:39:57.253Z,26.00
2022-08-17T17:42:40.573Z,26.00
2022-08-17T17:45:32.699Z,26.00
2022-08-17T17:48:12.009Z,26.00
2022-08-17T17:50:56.544Z,26.00
2022-08-17T17:53:49.501Z,26.00
2022-08-17T17:56:57.000Z,25.50
2022-08-17T17:59:57.745Z,25.50
2022-08-17T18:03:09.611Z,25.50
2022-08-17T18:06:09.736Z,25.50
2022-08-17T18:09:15.518Z,25.50
2022-08-17T18:12:35.873Z,25.50
2022-08-17T18:15:30.031Z,25.50
2022-08-17T18:18:23.085Z,25.50
2022-08-17T18:21:14.865Z,25.00
2022-08-17T18:24:03.098Z,25.00
2022-08-17T18:26:56.714Z,25.00
2022-08-17T18:29:43.574Z,25.00
2022-08-17T18:32:28.755Z,25.00
2022-08-17T18:35:09.868Z,25.00
2022-08-17T18:37:53.614Z,25.00
2022-08-17T18:40:36.729Z,25.00
2022-08-17T18:43:44.511Z,24.50
2022-08-17T18:46:37.785Z,25.00
2022-08-17T18:49:29.943Z,25.00
2022-08-17T18:52:14.184Z,25.00
2022-08-17T18:55:14.300Z,25.00
2022-08-17T18:58:17.960Z,24.50
2022-08-17T19:00:57.836Z,24.50
2022-08-17T19:03:44.287Z,24.50
2022-08-17T19:06:35.136Z,24.00
2022-08-17T19:09:35.953Z,24.00
2022-08-17T19:12:49.214Z,24.50
2022-08-17T19:16:14.149Z,24.50
2022-08-17T19:19:21.942Z,24.00
2022-08-17T19:22:28.353Z,24.00
2022-08-17T19:25:18.764Z,24.00
2022-08-17T19:28:23.802Z,24.00
2022-08-17T19:31:12.522Z,24.00
2022-08-17T19:33:51.412Z,23.50
2022-08-17T19:37:09.963Z,23.50
2022-08-17T19:39:55.755Z,24.00
2022-08-17T19:43:00.664Z,24.00
2022-08-17T19:46:14.885Z,23.50
2022-08-17T19:49:34.476Z,24.00
2022-08-17T19:52:31.887Z,24.00
2022-08-17T19:55:24.361Z,23.50
2022-08-17T19:58:37.151Z,23.50
2022-08-17T20:01:43.254Z,23.50
2022-08-17T20:04:40.269Z,23.00
2022-08-17T20:07:30.409Z,23.00
2022-08-17T20:10:28.241Z,23.50
2022-08-17T20:13:20.133Z,23.50
2022-08-17T20:16:13.106Z,23.00
2022-08-17T20:19:28.811Z,23.00
2022-08-17T20:22:21.364Z,23.00
2022-08-17T20:25:18.248Z,23.00
2022-08-17T20:28:24.284Z,22.50
2022-08-17T20:31:26.490Z,23.00
2022-08-17T20:34:36.872Z,22.50
2022-08-17T20:37:15.837Z,23.00
2022-08-17T20:39:56.826Z,23.00
2022-08-17T20:42:38.324Z,22.50
2022-08-17T20:45:22.189Z,22.50
2022-08-17T20:51:43.169Z,22.50
2022-08-17T20:54:59.990Z,22.50
2022-08-17T20:57:38.120Z,22.50
2022-08-17T21:00:28.386Z,22.50
2022-08-17T21:03:24.640Z,22.50
2022-08-17T21:06:17.926Z,22.50
2022-08-17T21:09:16.266Z,22.00
2022-08-17T21:12:05.515Z,22.00
2022-08-17T21:15:35.052Z,22.00
2022-08-17T21:19:03.059Z,22.00
2022-08-17T21:22:16.317Z,22.00
2022-08-17T21:25:36.120Z,22.00
2022-08-17T21:29:00.742Z,22.00
2022-08-17T21:32:00.611Z,22.00
2022-08-17T21:34:43.336Z,22.00
2022-08-17T21:37:24.329Z,22.00
2022-08-17T21:40:11.431Z,21.50
2022-08-17T21:42:59.141Z,21.50
2022-08-17T21:45:43.068Z,21.50
2022-08-17T21:48:25.233Z,21.50
2022-08-17T21:51:12.370Z,21.50
2022-08-17T21:54:01.487Z,21.50
2022-08-17T21:56:45.936Z,21.00
2022-08-17T21:59:37.180Z,21.00
2022-08-17T22:02:32.437Z,21.00
2022-08-17T22:05:14.697Z,21.00
2022-08-17T22:08:07.788Z,21.00
2022-08-17T22:11:02.675Z,21.00
2022-08-17T22:13:40.846Z,21.00
2022-08-17T22:16:29.339Z,21.50
2022-08-17T22:19:07.829Z,21.00
2022-08-17T22:21:46.087Z,21.00
2022-08-17T22:24:25.084Z,21.00
2022-08-17T22:27:11.066Z,21.00
2022-08-17T22:30:00.225Z,21.00
2022-08-17T22:32:45.579Z,20.50
2022-08-17T22:35:43.313Z,21.00
2022-08-17T22:38:21.370Z,21.00
2022-08-17T22:41:35.994Z,21.00
2022-08-17T22:44:37.898Z,21.00
2022-08-17T22:47:19.269Z,21.00
2022-08-17T22:50:11.605Z,20.50
2022-08-17T22:53:19.562Z,20.50
2022-08-17T22:56:17.013Z,20.00
2022-08-17T22:59:18.052Z,20.50
2022-08-17T23:02:15.014Z,20.50
2022-08-17T23:05:13.180Z,20.50
2022-08-17T23:07:53.342Z,20.50
2022-08-17T23:10:31.841Z,20.50
2022-08-17T23:13:12.499Z,20.50
2022-08-17T23:15:52.013Z,20.50
2022-08-17T23:18:30.173Z,20.50
2022-08-17T23:21:08.604Z,20.50
2022-08-17T23:23:51.687Z,20.50
2022-08-17T23:26:30.296Z,20.50
2022-08-17T23:29:10.176Z,20.50
2022-08-17T23:31:50.633Z,20.50
2022-08-17T23:34:29.141Z,20.50
2022-08-17T23:37:09.209Z,20.00
2022-08-17T23:39:47.399Z,20.00
2022-08-17T23:42:25.564Z,20.50
2022-08-17T23:45:04.163Z,20.00
2022-08-17T23:47:42.495Z,20.50
2022-08-17T23:50:20.737Z,20.00
2022-08-17T23:52:59.613Z,20.00
2022-08-17T23:55:37.709Z,20.00
2022-08-17T23:58:15.794Z,20.00
